»·PEaware :: N723DW KBOI-KFAT

N723DW :: KBOI-KFAT

FLIGHT INFORMATION

Flight Status: Arrived
Operator: Privately registered:
United States
More flights under this callsign
Pilot: Danny W. (23158)
Aircraft: BEECH AIRCRAFT DUKE
(BE60)
More flights by this aircraft type
Origin: KBOI Boise Air Terminal/Gowen
United States
Destination: KFAT Fresno Yosemite Intl
United States
More flights between these airports :: More routes between these airports
Route: +BOI3 HYVAL REO FMG CZQ
File this flight plan on PilotEdge
Remarks:
Altitude:
(Current/Filed)
24,000ft
Speed:
(Current/Filed)
190kts
Departed: 05-Feb-19 04:40 PM
Arrived: 05-Feb-19 06:38 PM
Distance/Time
Traveled:
438nm/1:58
Distance/Time
To Go:
Arrived

Flight Plot

Page will automatically refresh every two minutes.

Flight plan parsing failed; only flown route is shown


Map Options




Map Legend


Flown Route
Filed Route
Departure Airport
Arrival Airport
Navaid (VOR, NDB)
Fix

Horizontal Profiles

Position Reports

Time Latitude Longitude Heading Altitude Ground
Speed
05-Feb-19 16:19 43.563428 -116.237784 173 2837ft 0kts
05-Feb-19 16:20 43.563428 -116.237784 173 2837ft 0kts
05-Feb-19 16:21 43.563427 -116.237784 173 2837ft 0kts
05-Feb-19 16:22 43.563424 -116.237783 173 2837ft 0kts
05-Feb-19 16:23 43.563420 -116.237782 173 2837ft 0kts
05-Feb-19 16:24 43.563417 -116.237782 173 2837ft 0kts
05-Feb-19 16:25 43.563413 -116.237781 173 2837ft 0kts
05-Feb-19 16:26 43.563410 -116.237781 173 2837ft 0kts
05-Feb-19 16:27 43.563406 -116.237780 173 2837ft 0kts
05-Feb-19 16:28 43.563403 -116.237780 173 2837ft 0kts
05-Feb-19 16:29 43.563399 -116.237779 173 2837ft 0kts
05-Feb-19 16:30 43.563396 -116.237779 173 2837ft 0kts
05-Feb-19 16:31 43.563392 -116.237778 173 2837ft 0kts
05-Feb-19 16:32 43.563296 -116.237971 303 2837ft 6kts
05-Feb-19 16:33 43.563894 -116.234274 63 2837ft 16kts
05-Feb-19 16:34 43.563889 -116.228820 116 2837ft 20kts
05-Feb-19 16:35 43.561220 -116.220787 114 2837ft 24kts
05-Feb-19 16:36 43.558311 -116.212139 114 2837ft 24kts
05-Feb-19 16:37 43.558113 -116.209953 22 2837ft 0kts
05-Feb-19 16:38 43.558921 -116.210111 296 2837ft 8kts
05-Feb-19 16:39 43.573499 -116.254069 295 4123ft 180kts
05-Feb-19 16:40 43.592760 -116.327592 290 5281ft 232kts
05-Feb-19 16:41 43.614065 -116.403675 290 7717ft 198kts
05-Feb-19 16:42 43.632268 -116.474669 267 10509ft 199kts
05-Feb-19 16:43 43.596070 -116.530818 212 13342ft 203kts
05-Feb-19 16:44 43.547579 -116.571887 211 15776ft 210kts
05-Feb-19 16:45 43.493090 -116.619474 211 16032ft 242kts
05-Feb-19 16:46 43.440221 -116.665676 210 17972ft 207kts
05-Feb-19 16:47 43.393740 -116.706180 208 20645ft 193kts
05-Feb-19 16:48 43.348795 -116.745284 206 23309ft 190kts
05-Feb-19 16:49 43.297789 -116.789583 207 23771ft 231kts
05-Feb-19 16:50 43.242688 -116.837417 207 23763ft 238kts
05-Feb-19 16:51 43.186511 -116.885993 207 23759ft 239kts
05-Feb-19 16:52 43.131075 -116.937043 221 23755ft 245kts
05-Feb-19 16:53 43.089057 -117.011299 225 23753ft 247kts
05-Feb-19 16:54 43.046630 -117.085427 225 23743ft 246kts
05-Feb-19 16:55 43.004283 -117.159002 225 23744ft 246kts
05-Feb-19 16:56 42.961788 -117.232635 225 23739ft 246kts
05-Feb-19 16:57 42.919309 -117.306044 226 23734ft 246kts
05-Feb-19 16:58 42.876816 -117.379306 226 23730ft 246kts
05-Feb-19 16:59 42.834261 -117.452481 226 23725ft 246kts
05-Feb-19 17:00 42.791676 -117.525529 226 23722ft 246kts
05-Feb-19 17:01 42.749042 -117.598486 226 23732ft 246kts
05-Feb-19 17:02 42.706513 -117.671077 226 23735ft 246kts
05-Feb-19 17:03 42.663710 -117.743967 226 23734ft 246kts
05-Feb-19 17:05 42.621026 -117.816467 227 23733ft 246kts
05-Feb-19 17:06 42.572994 -117.880066 201 23736ft 240kts
05-Feb-19 17:07 42.511709 -117.916742 202 23733ft 241kts
05-Feb-19 17:08 42.450585 -117.954083 203 23733ft 241kts
05-Feb-19 17:09 42.389334 -117.991527 203 23732ft 242kts
05-Feb-19 17:10 42.327580 -118.029217 203 23731ft 244kts
05-Feb-19 17:11 42.265487 -118.067043 203 23730ft 244kts
05-Feb-19 17:12 42.203390 -118.104756 205 23728ft 249kts
05-Feb-19 17:13 42.138288 -118.144273 207 23727ft 263kts
05-Feb-19 17:14 42.070959 -118.185014 206 23723ft 266kts
05-Feb-19 17:15 42.003343 -118.225824 206 23720ft 266kts
05-Feb-19 17:16 41.935669 -118.266577 207 23716ft 267kts
05-Feb-19 17:17 41.867788 -118.307362 207 23712ft 267kts
05-Feb-19 17:18 41.799814 -118.348103 207 23708ft 268kts
05-Feb-19 17:19 41.731420 -118.389006 207 23704ft 269kts
05-Feb-19 17:20 41.663067 -118.429784 207 23700ft 270kts
05-Feb-19 17:21 41.594346 -118.470687 207 23704ft 271kts
05-Feb-19 17:22 41.525168 -118.511762 207 23701ft 272kts
05-Feb-19 17:23 41.455771 -118.552875 207 23699ft 273kts
05-Feb-19 17:24 41.385957 -118.594136 207 23691ft 274kts
05-Feb-19 17:24 41.327796 -118.628436 207 23696ft 275kts
05-Feb-19 17:26 41.245867 -118.676639 207 23696ft 276kts
05-Feb-19 17:27 41.175390 -118.717996 207 23697ft 277kts
05-Feb-19 17:27 41.116753 -118.752329 207 23698ft 277kts
05-Feb-19 17:28 41.045999 -118.793666 207 23700ft 278kts
05-Feb-19 17:29 40.975239 -118.834913 207 23790ft 278kts
05-Feb-19 17:31 40.892150 -118.883227 207 23782ft 280kts
05-Feb-19 17:31 40.832392 -118.917889 207 23738ft 281kts
05-Feb-19 17:32 40.760903 -118.959258 207 23744ft 281kts
05-Feb-19 17:33 40.689034 -119.000759 207 23750ft 282kts
05-Feb-19 17:34 40.617094 -119.042202 207 23756ft 283kts
05-Feb-19 17:35 40.544724 -119.083791 207 23762ft 284kts
05-Feb-19 17:36 40.471914 -119.125535 207 23766ft 285kts
05-Feb-19 17:37 40.398893 -119.167299 207 23770ft 287kts
05-Feb-19 17:38 40.325535 -119.209155 207 23780ft 288kts
05-Feb-19 17:39 40.251656 -119.251209 207 23783ft 290kts
05-Feb-19 17:40 40.177407 -119.293374 207 23786ft 292kts
05-Feb-19 17:41 40.102553 -119.335776 207 23789ft 294kts
05-Feb-19 17:42 40.027230 -119.378346 207 23803ft 295kts
05-Feb-19 17:43 39.951794 -119.420867 208 23806ft 295kts
05-Feb-19 17:44 39.876527 -119.463198 208 23808ft 295kts
05-Feb-19 17:45 39.800756 -119.505713 208 23809ft 296kts
05-Feb-19 17:46 39.724857 -119.548189 208 23810ft 297kts
05-Feb-19 17:47 39.648993 -119.590549 208 23811ft 297kts
05-Feb-19 17:48 39.573147 -119.632790 208 23812ft 296kts
05-Feb-19 17:49 39.493520 -119.659172 184 23817ft 302kts
05-Feb-19 17:50 39.424608 -119.662828 185 23812ft 301kts
05-Feb-19 17:51 39.340793 -119.667882 185 23812ft 300kts
05-Feb-19 17:52 39.257534 -119.673015 185 23812ft 298kts
05-Feb-19 17:53 39.175008 -119.678112 185 23813ft 296kts
05-Feb-19 17:54 39.092889 -119.683172 185 23815ft 295kts
05-Feb-19 17:55 39.011046 -119.688205 186 23821ft 293kts
05-Feb-19 17:56 38.929608 -119.693205 186 23817ft 292kts
05-Feb-19 17:57 38.848415 -119.698172 186 23823ft 291kts
05-Feb-19 17:58 38.767735 -119.703102 186 23826ft 290kts
05-Feb-19 17:59 38.687111 -119.708014 186 23826ft 290kts
05-Feb-19 18:00 38.665759 -119.709314 186 23827ft 290kts
05-Feb-19 18:01 38.601153 -119.713244 186 23830ft 290kts
05-Feb-19 18:02 38.520499 -119.718136 187 23806ft 291kts
05-Feb-19 18:03 38.439544 -119.723039 186 23803ft 291kts
05-Feb-19 18:04 38.358684 -119.727911 187 23809ft 291kts
05-Feb-19 18:05 38.277555 -119.732804 187 23816ft 292kts
05-Feb-19 18:06 38.196190 -119.737695 187 23822ft 292kts
05-Feb-19 18:07 38.114879 -119.742571 187 23830ft 293kts
05-Feb-19 18:08 38.033459 -119.747442 187 23837ft 293kts
05-Feb-19 18:09 37.953012 -119.752451 187 22659ft 285kts
05-Feb-19 18:10 37.873222 -119.757113 186 20863ft 277kts
05-Feb-19 18:11 37.798817 -119.761438 186 19065ft 262kts
05-Feb-19 18:12 37.727031 -119.765694 185 17268ft 255kts
05-Feb-19 18:13 37.658906 -119.769857 185 15463ft 237kts
05-Feb-19 18:14 37.594015 -119.773762 185 13667ft 231kts
05-Feb-19 18:15 37.531843 -119.777361 185 12801ft 239kts
05-Feb-19 18:16 37.468087 -119.781082 185 11297ft 216kts
05-Feb-19 18:17 37.409622 -119.784485 185 10965ft 222kts
05-Feb-19 18:18 37.346332 -119.788101 185 10974ft 226kts
05-Feb-19 18:19 37.284495 -119.791598 185 10981ft 220kts
05-Feb-19 18:20 37.223522 -119.795234 185 10986ft 219kts
05-Feb-19 18:21 37.162607 -119.794383 162 11001ft 223kts
05-Feb-19 18:22 37.107208 -119.757999 152 10087ft 213kts
05-Feb-19 18:23 37.053005 -119.720637 152 9088ft 228kts
05-Feb-19 18:24 36.998895 -119.683966 152 7289ft 210kts
05-Feb-19 18:25 36.947888 -119.649334 152 5720ft 208kts
05-Feb-19 18:26 36.898524 -119.615808 152 5006ft 194kts
05-Feb-19 18:27 36.850964 -119.583287 152 5000ft 195kts
05-Feb-19 18:28 36.802196 -119.549964 152 4424ft 199kts
05-Feb-19 18:29 36.754589 -119.517696 152 3760ft 202kts
05-Feb-19 18:30 36.706783 -119.485132 152 3395ft 190kts
05-Feb-19 18:31 36.660894 -119.486096 245 3378ft 186kts
05-Feb-19 18:32 36.666880 -119.549972 310 2597ft 196kts
05-Feb-19 18:33 36.699989 -119.586688 325 1996ft 129kts
05-Feb-19 18:34 36.722885 -119.615429 292 1901ft 129kts
05-Feb-19 18:35 36.742076 -119.657232 308 1128ft 106kts
05-Feb-19 18:36 36.759772 -119.687893 307 729ft 101kts
05-Feb-19 18:37 36.774327 -119.713141 314 339ft 40kts
05-Feb-19 18:38 36.779850 -119.723050 296 339ft 26kts
05-Feb-19 18:39 36.777051 -119.727100 277 339ft 11kts
05-Feb-19 18:40 36.777311 -119.727837 304 339ft 0kts

Navigation Log

Ident Type
Flight plan parsing failed, navigation log unavailable